Sunday, July 22, 2018, 10:14 AM EDT
Back to Local

KFWN, Sussex Airport

Location: Sussex, NJ, United States Lat: 41.2
Local Time: 10:14 AM EDT (14:14 GMT) Lon: -74.633
Time Zone: US/Eastern Elev: 419 ft

Show me the last for .
Show Decoded

2018-07-22 09:53 METAR KFWN 221353Z AUTO 16006KT 10SM BKN016 BKN022 OVC034 23/22 A2987 RMK AO2
                 RAE03 SLP112 P0000 T02330217 =
2018-07-22 09:48 METAR KFWN 221348Z AUTO VRB05KT 10SM BKN016 BKN022 OVC032 23/22 A2987 RMK AO2
                 RAE03 P0000 =
2018-07-22 09:26 METAR KFWN 221326Z AUTO 16009KT 10SM BKN014 BKN027 OVC038 23/22 A2986 RMK AO2
                 RAE03 P0000 T02330217 =
2018-07-22 08:53 METAR KFWN 221253Z AUTO VRB04KT 6SM -RA BR FEW014 BKN049 OVC055 23/22 A2985 RMK
                 AO2 RAB53 SLP105 P0000 T02280217 =
2018-07-22 08:29 METAR KFWN 221229Z AUTO 15005KT 10SM FEW013 BKN045 OVC055 23/21 A2984 RMK AO2
                 T02280211 =
2018-07-22 07:53 METAR KFWN 221153Z AUTO 15010G15KT 3SM BR OVC015 22/21 A2983 RMK AO2 RAB07E17
                 SLP097 P0000 60034 70050 T02220211 10233 20178 53019 =
2018-07-22 06:53 METAR KFWN 221053Z AUTO 15008KT 10SM SCT019 BKN024 OVC042 23/21 A2980 RMK AO2
                 RAE0956B27E49 SLP086 P0001 T02280211 =
2018-07-22 06:48 METAR KFWN 221048Z AUTO 14007KT 9SM -RA SCT019 BKN024 OVC045 23/22 A2979 RMK AO2
                 RAE0956B27 P0001 =
2018-07-22 06:41 METAR KFWN 221041Z AUTO 12007KT 2 1/2SM -RA BR FEW016 BKN021 OVC032 23/22 A2979
                 RMK AO2 RAE0956B27 P0001 T02280217 =
2018-07-22 06:28 METAR KFWN 221028Z AUTO 13009KT 7SM -RA SCT019 BKN026 23/21 A2978 RMK AO2
                 RAE0956B27 P0000 T02280211 =
2018-07-22 06:06 METAR KFWN 221006Z AUTO 13008KT 100V190 10SM FEW015 SCT019 BKN032 23/21 A2978
                 RMK AO2 RAE0956 P0000 T02280211 =
2018-07-22 05:53 METAR KFWN 220953Z AUTO 10006KT 10SM -RA BKN015 BKN021 OVC043 22/22 A2977 RMK
                 AO2 SLP078 P0008 T02220217 =
2018-07-22 05:44 METAR KFWN 220944Z AUTO 09005KT 4SM -RA BR OVC015 22/21 A2977 RMK AO2 P0008
                 T02170211 =
2018-07-22 05:12 METAR KFWN 220912Z AUTO 08007KT 4SM RA BR OVC014 22/21 A2976 RMK AO2 P0003
                 T02170211 =
2018-07-22 04:53 METAR KFWN 220853Z AUTO VRB04KT 4SM RA BR BKN016 OVC023 21/21 A2977 RMK AO2
                 SLP078 P0008 60025 T02110206 58008 =
2018-07-22 04:30 METAR KFWN 220830Z AUTO 04007KT 9SM -RA BKN017 OVC021 21/20 A2977 RMK AO2 P0004
                 T02060200 =
2018-07-22 04:02 METAR KFWN 220802Z AUTO 05006G15KT 5SM -RA BR FEW009 BKN014 OVC024 19/19 A2978
                 RMK AO2 P0001 T01940189 =
2018-07-22 03:53 METAR KFWN 220753Z AUTO 05009KT 3SM RA BR FEW010 SCT016 OVC024 19/19 A2978 RMK
                 AO2 SLP082 P0008 T01940189 =
2018-07-22 03:37 METAR KFWN 220737Z AUTO 04009G17KT 5SM -RA BR FEW009 BKN018 OVC026 19/19 A2978
                 RMK AO2 P0005 T01940189 =
2018-07-22 03:23 METAR KFWN 220723Z AUTO 04010G18KT 4SM -RA BR FEW007 BKN012 OVC018 19/18 A2979
                 RMK AO2 P0004 T01890183 =
2018-07-22 03:12 METAR KFWN 220712Z AUTO 04011G18KT 4SM RA BR SCT008 OVC015 18/18 A2979 RMK AO2
                 P0003 T01830178 =
2018-07-22 02:53 METAR KFWN 220653Z AUTO 02013G19KT 4SM -RA BR BKN008 OVC014 18/17 A2979 RMK AO2
                 CIG 006V011 SLP085 P0009 T01780172 =
2018-07-22 01:59 METAR KFWN 220559Z AUTO 03014G23KT 9SM -RA FEW007 OVC012 18/17 A2984 RMK AO2
                 P0000 T01780167 =
2018-07-22 01:53 METAR KFWN 220553Z AUTO 03012G21KT 8SM -RA FEW010 OVC015 17/17 A2984 RMK AO2
                 SLP102 P0006 60016 T01720167 10206 20161 58025 =
2018-07-22 01:29 METAR KFWN 220529Z AUTO 02013G19KT 6SM -RA BR FEW008 OVC015 17/17 A2986 RMK AO2
                 PRESFR P0004 T01720167 =
2018-07-22 00:53 METAR KFWN 220453Z AUTO 02013G19KT 8SM -RA OVC012 17/16 A2989 RMK AO2 SLP119
                 P0002 T01670161 402560133 =
2018-07-21 23:53 METAR KFWN 220353Z AUTO 03011G17KT 5SM -RA BR OVC014 17/16 A2992 RMK AO2 SLP127
                 P0001 T01670156 =
2018-07-21 23:51 METAR KFWN 220351Z AUTO 03011G18KT 5SM -RA BR OVC014 17/16 A2992 RMK AO2 P0001 =
2018-07-21 22:53 METAR KFWN 220253Z AUTO 03007KT 10SM -RA OVC021 17/14 A2994 RMK AO2 SLP136 P0005
                 60007 T01670144 58018 =
2018-07-21 21:53 METAR KFWN 220153Z AUTO 01006KT 9SM -RA BKN027 OVC034 17/13 A2997 RMK AO2 SLP144
                 P0001 T01720133 =
2018-07-21 21:13 METAR KFWN 220113Z AUTO 03009KT 10SM -RA BKN027 BKN038 OVC055 18/13 A2998 RMK
                 AO2 P0000 T01830133 =
2018-07-21 20:53 METAR KFWN 220053Z AUTO 02007KT 10SM -RA BKN035 BKN055 OVC095 18/14 A2998 RMK
                 AO2 SLP149 P0001 T01830139 =
2018-07-21 19:53 METAR KFWN 212353Z AUTO 05008KT 10SM -RA BKN046 OVC055 21/13 A3000 RMK AO2 RAB12
                 SLP155 P0000 60000 T02060128 10239 20206 58007 =
2018-07-21 18:53 METAR KFWN 212253Z AUTO 05009KT 10SM FEW046 SCT085 BKN110 21/13 A3001 RMK AO2
                 SLP159 T02110133 =
2018-07-21 17:53 METAR KFWN 212153Z AUTO 06008KT 10SM OVC090 22/14 A3001 RMK AO2 SLP160 T02220144
                 =
2018-07-21 16:53 METAR KFWN 212053Z AUTO VRB06KT 10SM OVC090 23/14 A3002 RMK AO2 SLP162 T02280144
                 56014 =
2018-07-21 15:53 METAR KFWN 211953Z AUTO 08007KT 10SM SCT110 23/15 A3002 RMK AO2 SLP164 T02330150
                 =
2018-07-21 14:53 METAR KFWN 211853Z AUTO 07009G16KT 10SM FEW110 24/15 A3004 RMK AO2 SLP170
                 T02390150 =
2018-07-21 13:53 METAR KFWN 211753Z AUTO 10007KT 10SM CLR 23/12 A3006 RMK AO2 SLP176 T02330117
                 10256 20178 56011 =
2018-07-21 12:53 METAR KFWN 211653Z AUTO 14011G15KT 10SM FEW049 24/13 A3006 RMK AO2 SLP178
                 T02440133 =
2018-07-21 11:53 METAR KFWN 211553Z AUTO 11007KT 10SM SCT045 24/14 A3008 RMK AO2 SLP183 T02440144
                 =
2018-07-21 10:53 METAR KFWN 211453Z AUTO 07009KT 10SM FEW037 OVC095 24/16 A3009 RMK AO2 SLP186
                 T02440156 58004 =

Support USWX by starting your Amazon purchase here.